createdAt,value
2022-12-08T00:01:19.056Z,95221.72
2022-12-08T00:03:47.484Z,95212.78
2022-12-08T00:06:40.232Z,95209.81
2022-12-08T00:09:23.166Z,95208.22
2022-12-08T00:11:56.506Z,95196.06
2022-12-08T00:14:26.537Z,95205.81
2022-12-08T00:16:55.083Z,95202.38
2022-12-08T00:19:23.582Z,95195.84
2022-12-08T00:21:53.273Z,95202.16
2022-12-08T00:24:22.001Z,95197.69
2022-12-08T00:26:50.404Z,95194.25
2022-12-08T00:29:19.091Z,95204.56
2022-12-08T00:31:47.485Z,95198.72
2022-12-08T00:34:16.072Z,95195.06
2022-12-08T00:36:44.458Z,95187.16
2022-12-08T00:39:14.551Z,95183.72
2022-12-08T00:42:00.354Z,95180.28
2022-12-08T00:44:28.711Z,95181.88
2022-12-08T00:46:57.133Z,95184.84
2022-12-08T00:49:25.451Z,95190.13
2022-12-08T00:51:53.965Z,95192.53
2022-12-08T00:54:24.611Z,95190.72
2022-12-08T00:56:53.177Z,95197.81
2022-12-08T00:59:21.504Z,95188.28
2022-12-08T01:01:49.830Z,95187.75
2022-12-08T01:04:19.223Z,95191.19
2022-12-08T01:06:47.648Z,95184.31
2022-12-08T01:09:16.601Z,95189.09
2022-12-08T01:11:46.511Z,95188.28
2022-12-08T01:14:14.948Z,95188.06
2022-12-08T01:16:43.539Z,95185.22
2022-12-08T01:19:12.389Z,95184.19
2022-12-08T01:21:40.927Z,95180.75
2022-12-08T01:24:11.834Z,95181.78
2022-12-08T01:26:40.188Z,95187.41
2022-12-08T01:29:10.039Z,95196.13
2022-12-08T01:31:38.399Z,95192.91
2022-12-08T01:34:07.027Z,95191.66
2022-12-08T01:36:37.213Z,95186.41
2022-12-08T01:39:07.189Z,95187.19
2022-12-08T01:41:36.558Z,95190.63
2022-12-08T01:44:05.789Z,95188.56
2022-12-08T01:46:36.105Z,95182.84
2022-12-08T01:49:06.119Z,95176.78
2022-12-08T01:51:39.184Z,95180.22
2022-12-08T01:54:07.568Z,95179.41
2022-12-08T01:56:37.679Z,95177.81
2022-12-08T01:59:06.050Z,95180.66
2022-12-08T02:01:35.964Z,95177.81
2022-12-08T02:04:05.378Z,95167.06
2022-12-08T02:06:34.962Z,95169.69
2022-12-08T02:09:03.332Z,95160.97
2022-12-08T02:11:31.562Z,95165.44
2022-12-08T02:14:02.767Z,95164.06
2022-12-08T02:16:39.319Z,95165.44
2022-12-08T02:19:31.870Z,95158.56
2022-12-08T02:22:01.181Z,95151.69
2022-12-08T02:24:32.711Z,95146.44
2022-12-08T02:27:16.029Z,95151.69
2022-12-08T02:30:09.428Z,95142.53
2022-12-08T02:33:03.006Z,95142.53
2022-12-08T02:35:35.147Z,95138.53
2022-12-08T02:38:07.725Z,95130.88
2022-12-08T02:40:37.996Z,95136.16
2022-12-08T02:43:08.968Z,95131.44
2022-12-08T02:45:39.730Z,95137.72
2022-12-08T02:48:08.102Z,95131.44
2022-12-08T02:50:37.945Z,95124.34
2022-12-08T02:55:38.827Z,95125.63
2022-12-08T02:58:43.554Z,95123.75
2022-12-08T03:01:25.999Z,95116.66
2022-12-08T03:03:58.051Z,95119.19
2022-12-08T03:06:30.768Z,95121.59
2022-12-08T03:09:01.126Z,95119.97
2022-12-08T03:11:31.802Z,95121.38
2022-12-08T03:14:01.546Z,95121.38
2022-12-08T03:16:31.121Z,95110.38
2022-12-08T03:19:01.969Z,95100.63
2022-12-08T03:21:31.736Z,95098.22
2022-12-08T03:24:00.104Z,95095.59
2022-12-08T03:26:31.687Z,95096.66
2022-12-08T03:28:59.974Z,95096.66
2022-12-08T03:31:29.541Z,95095.59
2022-12-08T03:33:58.165Z,95088.50
2022-12-08T03:36:26.573Z,95092.16
2022-12-08T03:38:56.260Z,95091.13
2022-12-08T03:41:24.859Z,95087.69
2022-12-08T03:43:53.964Z,95090.31
2022-12-08T03:48:50.195Z,95084.03
2022-12-08T03:51:18.663Z,95079.00
2022-12-08T03:53:47.315Z,95077.16
2022-12-08T03:56:18.457Z,95083.00
2022-12-08T03:58:46.819Z,95074.31
2022-12-08T04:01:15.086Z,95076.94
2022-12-08T04:03:43.374Z,95069.03
2022-12-08T04:06:12.335Z,95075.13
2022-12-08T04:08:40.661Z,95065.97
2022-12-08T04:11:09.003Z,95067.78
2022-12-08T04:13:39.649Z,95063.56
2022-12-08T04:16:07.952Z,95065.59
2022-12-08T04:18:36.874Z,95059.78
2022-12-08T04:21:05.682Z,95064.00
2022-12-08T04:23:34.077Z,95067.69
2022-12-08T04:26:02.525Z,95057.94
2022-12-08T04:28:30.837Z,95061.63
2022-12-08T04:31:00.791Z,95064.00
2022-12-08T04:33:29.278Z,95056.09
2022-12-08T04:35:57.514Z,95056.91
2022-12-08T04:38:25.923Z,95061.13
2022-12-08T04:40:54.238Z,95049.81
2022-12-08T04:43:22.496Z,95047.16
2022-12-08T04:45:50.796Z,95050.84
2022-12-08T04:48:20.897Z,95054.84
2022-12-08T04:50:49.265Z,95050.16
2022-12-08T04:53:18.015Z,95053.25
2022-12-08T04:55:48.679Z,95050.59
2022-12-08T04:58:18.051Z,95047.97
2022-12-08T05:00:48.280Z,95053.47
2022-12-08T05:03:16.810Z,95052.78
2022-12-08T05:05:46.729Z,95049.34
2022-12-08T05:08:15.121Z,95060.13
2022-12-08T05:10:43.508Z,95044.31
2022-12-08T05:13:11.855Z,95055.66
2022-12-08T05:15:40.445Z,95052.00
2022-12-08T05:18:08.788Z,95050.59
2022-12-08T05:20:37.084Z,95038.81
2022-12-08T05:23:06.854Z,95045.91
2022-12-08T05:25:35.162Z,95052.22
2022-12-08T05:28:32.898Z,95046.72
2022-12-08T05:30:52.193Z,95047.53
2022-12-08T05:33:20.728Z,95045.47
2022-12-08T05:35:49.051Z,95047.31
2022-12-08T05:38:18.791Z,95056.22
2022-12-08T05:40:47.089Z,95043.50
2022-12-08T05:43:15.672Z,95049.81
2022-12-08T05:45:43.976Z,95049.34
2022-12-08T05:48:12.429Z,95043.28
2022-12-08T05:50:40.938Z,95038.81
2022-12-08T05:53:09.833Z,95038.59
2022-12-08T05:55:39.608Z,95034.13
2022-12-08T05:58:08.313Z,95034.59
2022-12-08T06:00:36.576Z,95035.63
2022-12-08T06:03:05.262Z,95034.59
2022-12-08T06:05:34.091Z,95036.19
2022-12-08T06:08:02.496Z,95039.84
2022-12-08T06:10:31.147Z,95037.66
2022-12-08T06:13:00.899Z,95038.81
2022-12-08T06:15:29.263Z,95031.94
2022-12-08T06:17:57.606Z,95041.47
2022-12-08T06:20:25.884Z,95029.53
2022-12-08T06:22:55.329Z,95032.19
2022-12-08T06:25:23.991Z,95036.63
2022-12-08T06:27:52.357Z,95034.00
2022-12-08T06:30:22.054Z,95035.03
2022-12-08T06:32:50.392Z,95039.50
2022-12-08T06:35:18.650Z,95036.09
2022-12-08T06:37:47.255Z,95031.84
2022-12-08T06:40:15.979Z,95033.47
2022-12-08T06:42:46.581Z,95041.09
2022-12-08T06:45:15.426Z,95029.22
2022-12-08T06:47:45.124Z,95034.81
2022-12-08T06:50:13.766Z,95045.34
2022-12-08T06:52:55.757Z,95049.00
2022-12-08T06:58:17.929Z,95050.38
2022-12-08T07:00:46.340Z,95049.59
2022-12-08T07:03:16.508Z,95057.25
2022-12-08T07:05:44.834Z,95055.22
2022-12-08T07:08:13.239Z,95064.13
2022-12-08T07:10:41.570Z,95053.59
2022-12-08T07:13:09.920Z,95055.44
2022-12-08T07:15:38.235Z,95060.91
2022-12-08T07:18:06.827Z,95053.59
2022-12-08T07:20:36.698Z,95055.78
2022-12-08T07:23:04.993Z,95053.38
2022-12-08T07:25:33.252Z,95060.47
2022-12-08T07:28:01.595Z,95059.44
2022-12-08T07:30:30.464Z,95055.78
2022-12-08T07:32:58.904Z,95047.88
2022-12-08T07:35:27.277Z,95046.06
2022-12-08T07:37:57.848Z,95049.25
2022-12-08T07:40:26.419Z,95049.81
2022-12-08T07:42:54.735Z,95046.06
2022-12-08T07:45:29.800Z,95052.91
2022-12-08T07:47:59.696Z,95047.88
2022-12-08T07:50:28.158Z,95048.69
2022-12-08T07:52:57.832Z,95047.31
2022-12-08T07:55:26.156Z,95047.09
2022-12-08T07:57:54.773Z,95044.19
2022-12-08T08:00:23.190Z,95047.19
2022-12-08T08:02:51.494Z,95051.78
2022-12-08T08:05:20.762Z,95051.19
2022-12-08T08:07:49.097Z,95048.34
2022-12-08T08:10:19.251Z,95039.63
2022-12-08T08:12:47.700Z,95042.03
2022-12-08T08:15:15.965Z,95045.22
2022-12-08T08:17:44.333Z,95044.19
2022-12-08T08:20:13.603Z,95052.31
2022-12-08T08:22:41.884Z,95044.19
2022-12-08T08:25:10.730Z,95054.16
2022-12-08T08:27:40.426Z,95057.94
2022-12-08T08:30:09.838Z,95053.13
2022-12-08T08:32:38.204Z,95056.34
2022-12-08T08:35:07.153Z,95057.72
2022-12-08T08:37:35.752Z,95061.97
2022-12-08T08:40:04.414Z,95061.47
2022-12-08T08:42:32.834Z,95065.50
2022-12-08T08:45:02.644Z,95060.13
2022-12-08T08:47:30.953Z,95055.44
2022-12-08T08:49:59.306Z,95061.03
2022-12-08T08:52:29.275Z,95065.41
2022-12-08T08:54:57.611Z,95058.84
2022-12-08T08:57:26.358Z,95057.03
2022-12-08T08:59:54.807Z,95057.59
2022-12-08T09:02:24.593Z,95061.97
2022-12-08T09:04:53.775Z,95068.81
2022-12-08T09:07:22.514Z,95065.94
2022-12-08T09:09:50.817Z,95061.72
2022-12-08T09:12:19.345Z,95059.56
2022-12-08T09:14:47.622Z,95078.22
2022-12-08T09:17:16.339Z,95073.75
2022-12-08T09:19:46.346Z,95063.66
2022-12-08T09:22:16.653Z,95070.53
2022-12-08T09:24:44.993Z,95060.81
2022-12-08T09:27:13.431Z,95052.22
2022-12-08T09:29:41.788Z,95056.44
2022-12-08T09:32:10.621Z,95051.75
2022-12-08T09:34:38.999Z,95049.09
2022-12-08T09:37:09.165Z,95047.94
2022-12-08T09:39:37.635Z,95059.63
2022-12-08T09:42:06.982Z,95055.75
2022-12-08T09:44:47.715Z,95050.78
2022-12-08T09:47:19.700Z,95042.09
2022-12-08T09:49:52.263Z,95033.16
2022-12-08T09:52:25.547Z,95037.16
2022-12-08T09:54:53.968Z,95034.41
2022-12-08T09:57:22.457Z,95024.28
2022-12-08T09:59:52.803Z,95016.59
2022-12-08T10:02:23.232Z,95028.25
2022-12-08T10:04:51.802Z,95019.16
2022-12-08T10:07:24.864Z,95021.03
2022-12-08T10:09:56.187Z,95017.44
2022-12-08T10:12:27.610Z,95019.13
2022-12-08T10:14:58.779Z,95014.50
2022-12-08T10:17:27.792Z,95013.38
2022-12-08T10:20:07.821Z,95014.19
2022-12-08T10:22:42.852Z,95011.84
2022-12-08T10:25:17.773Z,95016.69
2022-12-08T10:27:47.027Z,95010.78
2022-12-08T10:30:16.514Z,95012.50
2022-12-08T10:32:46.833Z,95006.34
2022-12-08T10:35:16.052Z,95007.53
2022-12-08T10:37:49.944Z,94999.84
2022-12-08T10:40:19.039Z,94999.97
2022-12-08T10:42:48.611Z,94995.19
2022-12-08T10:45:24.286Z,94993.00
2022-12-08T10:47:58.755Z,94988.19
2022-12-08T10:50:31.154Z,94981.78
2022-12-08T10:53:01.944Z,94985.25
2022-12-08T10:55:30.816Z,94983.06
2022-12-08T10:57:59.106Z,94989.94
2022-12-08T11:00:28.669Z,94984.66
2022-12-08T11:02:59.417Z,94982.59
2022-12-08T11:05:29.779Z,94983.16
2022-12-08T11:07:58.356Z,94984.63
2022-12-08T11:10:38.023Z,94979.34
2022-12-08T11:13:07.225Z,94977.59
2022-12-08T11:15:37.803Z,94970.03
2022-12-08T11:18:12.132Z,94972.97
2022-12-08T11:20:41.860Z,94971.03
2022-12-08T11:23:23.369Z,94968.47
2022-12-08T11:25:53.146Z,94962.50
2022-12-08T11:28:23.813Z,94963.06
2022-12-08T11:30:57.657Z,94948.72
2022-12-08T11:33:26.753Z,94958.94
2022-12-08T11:35:58.248Z,94952.88
2022-12-08T11:38:27.404Z,94952.63
2022-12-08T11:40:58.328Z,94947.84
2022-12-08T11:43:30.511Z,94944.53
2022-12-08T11:46:00.529Z,94943.50
2022-12-08T11:48:31.965Z,94948.31
2022-12-08T11:51:02.661Z,94933.88
2022-12-08T11:53:32.937Z,94938.66
2022-12-08T11:56:06.663Z,94932.75
2022-12-08T11:58:37.791Z,94930.28
2022-12-08T12:01:06.255Z,94938.06
2022-12-08T12:03:37.248Z,94935.03
2022-12-08T12:06:46.526Z,94932.63
2022-12-08T12:09:13.405Z,94932.91
2022-12-08T12:12:05.377Z,94932.78
2022-12-08T12:14:48.402Z,94933.16
2022-12-08T12:17:28.546Z,94929.25
2022-12-08T12:19:57.156Z,94937.66
2022-12-08T12:22:25.493Z,94930.38
2022-12-08T12:24:53.812Z,94931.88
2022-12-08T12:27:26.259Z,94932.84
2022-12-08T12:29:56.461Z,94932.44
2022-12-08T12:32:24.873Z,94924.69
2022-12-08T12:34:54.596Z,94923.31
2022-12-08T12:37:23.926Z,94919.56
2022-12-08T12:39:56.897Z,94916.28
2022-12-08T12:42:40.044Z,94918.91
2022-12-08T12:45:26.830Z,94920.97
2022-12-08T12:48:25.083Z,94909.41
2022-12-08T12:50:55.320Z,94912.44
2022-12-08T12:53:49.013Z,94909.63
2022-12-08T12:56:51.208Z,94916.97
2022-12-08T12:59:44.567Z,94916.50
2022-12-08T13:02:24.302Z,94908.13
2022-12-08T13:04:58.904Z,94904.69
2022-12-08T13:07:28.206Z,94906.19
2022-12-08T13:09:58.732Z,94904.94
2022-12-08T13:12:28.284Z,94890.53
2022-12-08T13:15:03.183Z,94900.06
2022-12-08T13:17:32.104Z,94893.66
2022-12-08T13:20:01.060Z,94896.84
2022-12-08T13:22:49.571Z,94887.34
2022-12-08T13:25:46.811Z,94891.28
2022-12-08T13:28:23.763Z,94891.50
2022-12-08T13:30:53.966Z,94887.91
2022-12-08T13:33:32.899Z,94889.50
2022-12-08T13:36:15.825Z,94882.84
2022-12-08T13:38:44.702Z,94886.56
2022-12-08T13:41:17.545Z,94896.03
2022-12-08T13:44:10.585Z,94888.53
2022-12-08T13:56:43.322Z,94900.50
2022-12-08T13:58:05.853Z,94901.31
2022-12-08T14:00:34.371Z,94904.53
2022-12-08T14:03:04.128Z,94908.44
2022-12-08T14:06:10.566Z,94905.94
2022-12-08T14:08:58.989Z,94904.56
2022-12-08T14:11:33.740Z,94904.28
2022-12-08T14:14:03.867Z,94910.56
2022-12-08T14:16:34.945Z,94909.44
2022-12-08T14:19:12.993Z,94907.75
2022-12-08T14:21:41.337Z,94906.16
2022-12-08T14:24:11.074Z,94909.03
2022-12-08T14:26:39.441Z,94915.78
2022-12-08T14:29:08.682Z,94914.66
2022-12-08T14:31:37.280Z,94915.94
2022-12-08T14:34:05.748Z,94913.75
2022-12-08T14:36:36.419Z,94916.88
2022-12-08T14:39:04.886Z,94919.53
2022-12-08T14:41:33.678Z,94914.72
2022-12-08T14:44:02.597Z,94917.81
2022-12-08T14:46:31.062Z,94916.19
2022-12-08T14:48:59.847Z,94915.41
2022-12-08T14:51:30.894Z,94917.00
2022-12-08T14:54:02.040Z,94916.47
2022-12-08T14:56:34.718Z,94915.09
2022-12-08T14:59:07.831Z,94922.19
2022-12-08T15:01:36.533Z,94924.25
2022-12-08T15:04:08.986Z,94922.88
2022-12-08T15:06:37.796Z,94922.06
2022-12-08T15:09:18.211Z,94922.56
2022-12-08T15:11:46.781Z,94925.66
2022-12-08T15:14:30.715Z,94933.31
2022-12-08T15:16:59.059Z,94931.94
2022-12-08T15:19:29.676Z,94929.53
2022-12-08T15:21:59.371Z,94929.78
2022-12-08T15:24:30.664Z,94929.78
2022-12-08T15:26:58.972Z,94931.06
2022-12-08T15:29:28.450Z,94927.63
2022-12-08T15:31:57.856Z,94930.84
2022-12-08T15:34:26.280Z,94929.47
2022-12-08T15:36:55.417Z,94932.31
2022-12-08T15:39:32.505Z,94939.19
2022-12-08T15:42:00.942Z,94938.38
2022-12-08T15:44:29.343Z,94935.03
2022-12-08T15:46:57.748Z,94944.69
2022-12-08T15:49:32.854Z,94940.44
2022-12-08T15:52:11.241Z,94933.34
2022-12-08T15:54:41.533Z,94934.72
2022-12-08T15:57:22.054Z,94929.69
2022-12-08T15:59:58.810Z,94926.25
2022-12-08T16:02:34.327Z,94922.25
2022-12-08T16:05:42.444Z,94931.97
2022-12-08T16:08:17.125Z,94933.81
2022-12-08T16:12:03.934Z,94925.91
2022-12-08T16:14:23.526Z,94919.50
2022-12-08T16:16:50.106Z,94927.66
2022-12-08T16:19:18.537Z,94921.56
2022-12-08T16:24:35.404Z,94924.44
2022-12-08T16:29:53.620Z,94918.59
2022-12-08T16:32:22.062Z,94925.16
2022-12-08T16:34:50.507Z,94927.56
2022-12-08T16:37:19.502Z,94938.09
2022-12-08T16:39:50.194Z,94933.03
2022-12-08T16:42:38.435Z,94926.97
2022-12-08T16:45:09.500Z,94925.47
2022-12-08T16:47:37.826Z,94924.34
2022-12-08T16:50:07.837Z,94927.19
2022-12-08T16:52:36.502Z,94919.75
2022-12-08T16:55:07.119Z,94929.97
2022-12-08T16:57:37.032Z,94923.09
2022-12-08T17:00:06.628Z,94925.16
2022-12-08T17:02:35.228Z,94931.69
2022-12-08T17:05:03.975Z,94929.75
2022-12-08T17:07:32.397Z,94931.34
2022-12-08T17:10:01.184Z,94931.81
2022-12-08T17:12:29.611Z,94920.94
2022-12-08T17:14:59.395Z,94923.78
2022-12-08T17:17:28.057Z,94922.44
2022-12-08T17:19:56.537Z,94920.81
2022-12-08T17:22:24.976Z,94916.25
2022-12-08T17:24:53.314Z,94907.78
2022-12-08T17:27:21.847Z,94910.41
2022-12-08T17:29:50.475Z,94904.34
2022-12-08T17:32:20.369Z,94915.44
2022-12-08T17:34:48.852Z,94912.59
2022-12-08T17:37:17.325Z,94910.75
2022-12-08T17:39:45.820Z,94911.34
2022-12-08T17:42:14.385Z,94907.91
2022-12-08T17:44:42.764Z,94916.59
2022-12-08T17:47:11.452Z,94912.72
2022-12-08T17:49:41.194Z,94908.47
2022-12-08T17:52:12.357Z,94899.56
2022-12-08T17:54:40.690Z,94905.63
2022-12-08T17:57:09.018Z,94905.63
2022-12-08T17:59:37.658Z,94913.75
2022-12-08T18:02:06.195Z,94905.03
2022-12-08T18:04:34.503Z,94905.25
2022-12-08T18:07:04.461Z,94898.16
2022-12-08T18:09:33.721Z,94902.19
2022-12-08T18:12:02.213Z,94895.09
2022-12-08T18:14:30.577Z,94895.84
2022-12-08T18:16:58.948Z,94897.72
2022-12-08T18:19:27.980Z,94901.69
2022-12-08T18:21:56.323Z,94903.31
2022-12-08T18:24:28.952Z,94902.50
2022-12-08T18:26:57.877Z,94903.53
2022-12-08T18:29:26.473Z,94907.19
2022-12-08T18:31:54.826Z,94908.56
2022-12-08T18:34:23.344Z,94892.78
2022-12-08T18:36:51.701Z,94895.63
2022-12-08T18:39:26.032Z,94903.53
2022-12-08T18:41:54.465Z,94886.72
2022-12-08T18:44:22.808Z,94889.81
2022-12-08T18:46:51.190Z,94883.28
2022-12-08T18:49:20.118Z,94881.66
2022-12-08T18:51:48.835Z,94886.13
2022-12-08T18:54:17.283Z,94889.91
2022-12-08T18:56:47.023Z,94890.72
2022-12-08T18:59:15.334Z,94900.22
2022-12-08T19:01:43.816Z,94907.09
2022-12-08T19:04:27.807Z,94904.69
2022-12-08T19:06:57.196Z,94913.59
2022-12-08T19:09:29.805Z,94913.38
2022-12-08T19:11:59.506Z,94915.44
2022-12-08T19:14:28.784Z,94914.19
2022-12-08T19:16:57.571Z,94913.38
2022-12-08T19:19:26.232Z,94913.97
2022-12-08T19:21:54.736Z,94921.06
2022-12-08T19:24:23.126Z,94914.75
2022-12-08T19:26:51.511Z,94915.78
2022-12-08T19:29:21.260Z,94908.69
2022-12-08T19:31:49.897Z,94914.41
2022-12-08T19:34:18.196Z,94919.66
2022-12-08T19:36:46.528Z,94916.25
2022-12-08T19:39:34.023Z,94918.88
2022-12-08T19:42:19.980Z,94918.66
2022-12-08T19:44:55.471Z,94918.41
2022-12-08T19:47:24.434Z,94925.03
2022-12-08T19:49:53.961Z,94914.19
2022-12-08T19:52:22.457Z,94911.88
2022-12-08T19:54:50.823Z,94907.88
2022-12-08T19:57:20.562Z,94908.44
2022-12-08T19:59:56.031Z,94907.88
2022-12-08T20:02:24.795Z,94914.50
2022-12-08T20:04:53.305Z,94910.03
2022-12-08T20:07:21.671Z,94913.69
2022-12-08T20:09:49.975Z,94919.78
2022-12-08T20:12:18.626Z,94915.56
2022-12-08T20:14:47.200Z,94915.56
2022-12-08T20:17:16.955Z,94913.69
2022-12-08T20:19:45.366Z,94918.75
2022-12-08T20:22:13.743Z,94920.81
2022-12-08T20:24:42.179Z,94918.97
2022-12-08T20:27:10.927Z,94921.06
2022-12-08T20:29:39.280Z,94928.38
2022-12-08T20:32:07.932Z,94923.09
2022-12-08T20:34:37.852Z,94920.13
2022-12-08T20:37:06.142Z,94919.66
2022-12-08T20:39:35.697Z,94931.81
2022-12-08T20:42:04.855Z,94928.59
2022-12-08T20:44:33.399Z,94929.84
2022-12-08T20:47:01.904Z,94927.78
2022-12-08T20:49:34.508Z,94931.22
2022-12-08T20:52:04.849Z,94927.56
2022-12-08T20:54:33.510Z,94934.09
2022-12-08T20:57:02.162Z,94932.03
2022-12-08T20:59:30.750Z,94925.16
2022-12-08T21:02:00.675Z,94920.94
2022-12-08T21:04:29.476Z,94929.31
2022-12-08T21:06:58.219Z,94925.63
2022-12-08T21:09:28.165Z,94934.31
2022-12-08T21:11:56.744Z,94932.72
2022-12-08T21:14:25.221Z,94936.41
2022-12-08T21:16:54.641Z,94934.56
2022-12-08T21:19:23.096Z,94930.34
2022-12-08T21:21:51.944Z,94944.28
2022-12-08T21:24:20.781Z,94937.88
2022-12-08T21:26:50.501Z,94931.59
2022-12-08T21:29:18.879Z,94928.16
2022-12-08T21:31:47.431Z,94931.59
2022-12-08T21:34:15.973Z,94936.03
2022-12-08T21:36:44.347Z,94928.94
2022-12-08T21:39:13.152Z,94925.97
2022-12-08T21:41:58.709Z,94926.78
2022-12-08T21:44:29.096Z,94929.88
2022-12-08T21:46:57.629Z,94925.66
2022-12-08T21:49:26.020Z,94926.44
2022-12-08T21:51:55.641Z,94928.59
2022-12-08T21:54:24.160Z,94928.16
2022-12-08T21:56:52.650Z,94933.88
2022-12-08T21:59:21.273Z,94934.09
2022-12-08T22:01:51.552Z,94939.94
2022-12-08T22:04:21.435Z,94936.03
2022-12-08T22:06:50.157Z,94940.97
2022-12-08T22:09:19.049Z,94932.72
2022-12-08T22:11:47.879Z,94933.28
2022-12-08T22:14:16.550Z,94931.72
2022-12-08T22:16:44.987Z,94936.72
2022-12-08T22:19:15.270Z,94930.66
2022-12-08T22:21:43.674Z,94932.97
2022-12-08T22:24:12.193Z,94931.44
2022-12-08T22:26:40.663Z,94929.88
2022-12-08T22:29:09.594Z,94930.91
2022-12-08T22:31:38.359Z,94929.31
2022-12-08T22:34:07.006Z,94926.19
2022-12-08T22:36:36.839Z,94927.78
2022-12-08T22:39:05.422Z,94924.13
2022-12-08T22:41:34.137Z,94931.34
2022-12-08T22:44:02.816Z,94931.00
2022-12-08T22:46:31.700Z,94934.56
2022-12-08T22:49:00.179Z,94930.78
2022-12-08T22:51:28.513Z,94934.78
2022-12-08T22:53:58.404Z,94934.78
2022-12-08T22:56:27.259Z,94928.72
2022-12-08T22:58:55.663Z,94939.25
2022-12-08T23:01:25.439Z,94929.75
2022-12-08T23:03:54.199Z,94934.22
2022-12-08T23:06:22.769Z,94931.56
2022-12-08T23:08:51.497Z,94935.25
2022-12-08T23:11:21.864Z,94925.50
2022-12-08T23:13:50.335Z,94926.75
2022-12-08T23:16:18.730Z,94927.13
2022-12-08T23:18:47.351Z,94922.44
2022-12-08T23:21:16.769Z,94923.47
2022-12-08T23:23:45.666Z,94927.56
2022-12-08T23:26:17.036Z,94931.22
2022-12-08T23:28:46.939Z,94923.69
2022-12-08T23:31:15.544Z,94929.53
2022-12-08T23:33:44.308Z,94922.88
2022-12-08T23:36:14.742Z,94921.28
2022-12-08T23:38:43.797Z,94919.66
2022-12-08T23:41:13.205Z,94922.56
2022-12-08T23:43:46.738Z,94917.53
2022-12-08T23:46:15.803Z,94920.38
2022-12-08T23:48:44.273Z,94915.69
2022-12-08T23:51:13.125Z,94915.69
2022-12-08T23:53:41.578Z,94921.84
2022-12-08T23:56:11.206Z,94914.97
2022-12-08T23:58:39.885Z,94915.47
